Bridgewater, Michigan
Current Conditions -  °F | °C
As of 3:53 AM on Wednesday 22 Oct 2014 (Local Time) from KARB Reporting Station
Overcast Overcast  
Wind Chill: 39°   Ceiling: 1800
Heat Index: 44°   Visibility: 10mi
Dew Point: 36°   Wind: 9mph
Humidity: 73%   Direction: 350°N
Pressure: 30.23"   Gusts: NA
Location:  42.16°N, 83.9°W
Report Text: KARB 220753Z AUTO 35008KT 10SM OVC018 07/02 A3023 RMK AO2 SLP240 T00670022
Loading
Personal Weather Stations






























Interactive Weather Map
Tropical Storm Tracking
New forecast layout! Learn more

10-Day Weather Forecast

Advertisements
Track Severe Weather on mobile